sensor_id;sensor_type;location;lat;lon;timestamp;P1;durP1;ratioP1;P2;durP2;ratioP2
30096;SDS011;16915;51.466;3.610;2023-04-03T00:00:55;5.45;;;3.15;;
30096;SDS011;16915;51.466;3.610;2023-04-03T00:03:21;3.53;;;3.20;;
30096;SDS011;16915;51.466;3.610;2023-04-03T00:05:47;5.35;;;3.13;;
30096;SDS011;16915;51.466;3.610;2023-04-03T00:08:12;5.68;;;3.53;;
30096;SDS011;16915;51.466;3.610;2023-04-03T00:10:38;5.05;;;3.50;;
30096;SDS011;16915;51.466;3.610;2023-04-03T00:13:04;4.20;;;3.28;;
30096;SDS011;16915;51.466;3.610;2023-04-03T00:15:31;5.50;;;3.30;;
30096;SDS011;16915;51.466;3.610;2023-04-03T00:17:56;5.78;;;3.35;;
30096;SDS011;16915;51.466;3.610;2023-04-03T00:20:22;9.82;;;4.05;;
30096;SDS011;16915;51.466;3.610;2023-04-03T00:22:48;4.18;;;3.28;;
30096;SDS011;16915;51.466;3.610;2023-04-03T00:25:14;4.05;;;3.47;;
30096;SDS011;16915;51.466;3.610;2023-04-03T00:27:39;4.22;;;3.65;;
30096;SDS011;16915;51.466;3.610;2023-04-03T00:30:06;5.07;;;3.20;;
30096;SDS011;16915;51.466;3.610;2023-04-03T00:32:34;5.95;;;3.22;;
30096;SDS011;16915;51.466;3.610;2023-04-03T00:34:59;4.53;;;3.28;;
30096;SDS011;16915;51.466;3.610;2023-04-03T00:37:25;7.35;;;3.50;;
30096;SDS011;16915;51.466;3.610;2023-04-03T00:39:50;5.45;;;2.97;;
30096;SDS011;16915;51.466;3.610;2023-04-03T00:42:16;3.33;;;2.50;;
30096;SDS011;16915;51.466;3.610;2023-04-03T00:47:09;4.55;;;2.40;;
30096;SDS011;16915;51.466;3.610;2023-04-03T00:49:38;6.88;;;2.75;;
30096;SDS011;16915;51.466;3.610;2023-04-03T00:52:08;6.07;;;2.30;;
30096;SDS011;16915;51.466;3.610;2023-04-03T00:54:38;4.15;;;2.47;;
30096;SDS011;16915;51.466;3.610;2023-04-03T00:57:07;2.40;;;2.20;;
30096;SDS011;16915;51.466;3.610;2023-04-03T00:59:34;3.28;;;2.15;;
30096;SDS011;16915;51.466;3.610;2023-04-03T01:02:03;3.30;;;1.70;;
30096;SDS011;16915;51.466;3.610;2023-04-03T01:07:09;3.95;;;1.75;;
30096;SDS011;16915;51.466;3.610;2023-04-03T01:09:37;2.78;;;2.03;;
30096;SDS011;16915;51.466;3.610;2023-04-03T01:12:17;4.25;;;1.60;;
30096;SDS011;16915;51.466;3.610;2023-04-03T01:15:08;4.80;;;2.00;;
30096;SDS011;16915;51.466;3.610;2023-04-03T01:17:39;4.63;;;1.77;;
30096;SDS011;16915;51.466;3.610;2023-04-03T01:28:11;1.45;;;1.20;;
30096;SDS011;16915;51.466;3.610;2023-04-03T01:30:44;5.28;;;1.65;;
30096;SDS011;16915;51.466;3.610;2023-04-03T01:33:17;4.97;;;1.55;;
30096;SDS011;16915;51.466;3.610;2023-04-03T01:35:43;6.15;;;1.73;;
30096;SDS011;16915;51.466;3.610;2023-04-03T01:38:09;1.42;;;1.30;;
30096;SDS011;16915;51.466;3.610;2023-04-03T01:40:35;3.13;;;1.25;;
30096;SDS011;16915;51.466;3.610;2023-04-03T01:43:02;1.65;;;1.17;;
30096;SDS011;16915;51.466;3.610;2023-04-03T01:45:27;4.70;;;1.30;;
30096;SDS011;16915;51.466;3.610;2023-04-03T01:47:53;2.85;;;1.30;;
30096;SDS011;16915;51.466;3.610;2023-04-03T01:50:19;2.03;;;1.20;;
30096;SDS011;16915;51.466;3.610;2023-04-03T01:52:44;2.50;;;1.35;;
30096;SDS011;16915;51.466;3.610;2023-04-03T01:55:10;4.05;;;1.50;;
30096;SDS011;16915;51.466;3.610;2023-04-03T01:57:35;1.50;;;1.40;;
30096;SDS011;16915;51.466;3.610;2023-04-03T02:00:01;2.70;;;1.40;;
30096;SDS011;16915;51.466;3.610;2023-04-03T02:02:27;2.58;;;1.50;;
30096;SDS011;16915;51.466;3.610;2023-04-03T02:04:53;2.03;;;1.20;;
30096;SDS011;16915;51.466;3.610;2023-04-03T02:07:19;2.78;;;1.67;;
30096;SDS011;16915;51.466;3.610;2023-04-03T02:09:45;2.05;;;1.27;;
30096;SDS011;16915;51.466;3.610;2023-04-03T02:12:10;4.68;;;1.35;;
30096;SDS011;16915;51.466;3.610;2023-04-03T02:14:36;3.38;;;2.03;;
30096;SDS011;16915;51.466;3.610;2023-04-03T02:17:01;2.53;;;1.30;;
30096;SDS011;16915;51.466;3.610;2023-04-03T02:19:33;2.55;;;1.55;;
30096;SDS011;16915;51.466;3.610;2023-04-03T02:22:00;2.78;;;1.38;;
30096;SDS011;16915;51.466;3.610;2023-04-03T02:24:27;4.07;;;1.42;;
30096;SDS011;16915;51.466;3.610;2023-04-03T02:26:52;3.50;;;1.20;;
30096;SDS011;16915;51.466;3.610;2023-04-03T02:29:18;2.17;;;1.30;;
30096;SDS011;16915;51.466;3.610;2023-04-03T02:31:44;2.05;;;1.50;;
30096;SDS011;16915;51.466;3.610;2023-04-03T02:34:10;2.97;;;1.50;;
30096;SDS011;16915;51.466;3.610;2023-04-03T02:36:35;2.05;;;1.35;;
30096;SDS011;16915;51.466;3.610;2023-04-03T02:39:01;4.95;;;1.63;;
30096;SDS011;16915;51.466;3.610;2023-04-03T02:41:28;2.88;;;1.65;;
30096;SDS011;16915;51.466;3.610;2023-04-03T02:46:25;1.38;;;1.27;;
30096;SDS011;16915;51.466;3.610;2023-04-03T02:48:51;7.72;;;1.65;;
30096;SDS011;16915;51.466;3.610;2023-04-03T02:51:16;2.20;;;1.40;;
30096;SDS011;16915;51.466;3.610;2023-04-03T02:53:42;2.10;;;1.40;;
30096;SDS011;16915;51.466;3.610;2023-04-03T02:56:08;2.33;;;1.75;;
30096;SDS011;16915;51.466;3.610;2023-04-03T02:58:34;1.92;;;1.23;;
30096;SDS011;16915;51.466;3.610;2023-04-03T03:01:00;2.95;;;1.45;;
30096;SDS011;16915;51.466;3.610;2023-04-03T03:03:26;1.83;;;1.60;;
30096;SDS011;16915;51.466;3.610;2023-04-03T03:06:08;1.88;;;1.40;;
30096;SDS011;16915;51.466;3.610;2023-04-03T03:08:38;3.75;;;1.73;;
30096;SDS011;16915;51.466;3.610;2023-04-03T03:11:05;3.75;;;1.50;;
30096;SDS011;16915;51.466;3.610;2023-04-03T03:13:31;3.03;;;1.70;;
30096;SDS011;16915;51.466;3.610;2023-04-03T03:15:57;4.60;;;1.90;;
30096;SDS011;16915;51.466;3.610;2023-04-03T03:18:22;3.88;;;1.50;;
30096;SDS011;16915;51.466;3.610;2023-04-03T03:20:52;2.60;;;1.58;;
30096;SDS011;16915;51.466;3.610;2023-04-03T03:23:19;3.70;;;1.60;;
30096;SDS011;16915;51.466;3.610;2023-04-03T03:25:45;3.70;;;1.70;;
30096;SDS011;16915;51.466;3.610;2023-04-03T03:28:10;3.40;;;1.70;;
30096;SDS011;16915;51.466;3.610;2023-04-03T03:30:36;3.13;;;1.83;;
30096;SDS011;16915;51.466;3.610;2023-04-03T03:33:02;2.92;;;2.03;;
30096;SDS011;16915;51.466;3.610;2023-04-03T03:35:28;5.43;;;2.20;;
30096;SDS011;16915;51.466;3.610;2023-04-03T03:37:53;2.90;;;1.85;;
30096;SDS011;16915;51.466;3.610;2023-04-03T03:40:19;3.47;;;1.95;;
30096;SDS011;16915;51.466;3.610;2023-04-03T03:42:44;4.45;;;2.28;;
30096;SDS011;16915;51.466;3.610;2023-04-03T03:45:10;2.78;;;2.17;;
30096;SDS011;16915;51.466;3.610;2023-04-03T03:47:36;4.78;;;2.03;;
30096;SDS011;16915;51.466;3.610;2023-04-03T03:50:01;4.32;;;2.50;;
30096;SDS011;16915;51.466;3.610;2023-04-03T03:52:28;3.70;;;2.28;;
30096;SDS011;16915;51.466;3.610;2023-04-03T03:54:55;6.15;;;2.60;;
30096;SDS011;16915;51.466;3.610;2023-04-03T03:57:21;5.18;;;2.38;;
30096;SDS011;16915;51.466;3.610;2023-04-03T03:59:46;5.13;;;2.67;;
30096;SDS011;16915;51.466;3.610;2023-04-03T04:02:13;4.63;;;2.40;;
30096;SDS011;16915;51.466;3.610;2023-04-03T04:04:39;4.72;;;2.83;;
30096;SDS011;16915;51.466;3.610;2023-04-03T04:07:05;3.03;;;2.20;;
30096;SDS011;16915;51.466;3.610;2023-04-03T04:09:30;5.65;;;2.85;;
30096;SDS011;16915;51.466;3.610;2023-04-03T04:11:56;5.13;;;2.60;;
30096;SDS011;16915;51.466;3.610;2023-04-03T04:14:22;5.50;;;2.35;;
30096;SDS011;16915;51.466;3.610;2023-04-03T04:16:47;7.10;;;2.85;;
30096;SDS011;16915;51.466;3.610;2023-04-03T04:19:13;3.95;;;2.38;;
30096;SDS011;16915;51.466;3.610;2023-04-03T04:21:39;4.75;;;2.90;;
30096;SDS011;16915;51.466;3.610;2023-04-03T04:24:05;6.53;;;2.55;;
30096;SDS011;16915;51.466;3.610;2023-04-03T04:26:31;3.60;;;2.35;;
30096;SDS011;16915;51.466;3.610;2023-04-03T04:28:56;4.32;;;2.88;;
30096;SDS011;16915;51.466;3.610;2023-04-03T04:31:22;3.30;;;2.92;;
30096;SDS011;16915;51.466;3.610;2023-04-03T04:33:47;5.68;;;2.75;;
30096;SDS011;16915;51.466;3.610;2023-04-03T04:36:13;7.35;;;2.33;;
30096;SDS011;16915;51.466;3.610;2023-04-03T04:38:39;3.67;;;3.22;;
30096;SDS011;16915;51.466;3.610;2023-04-03T04:41:05;6.55;;;3.50;;
30096;SDS011;16915;51.466;3.610;2023-04-03T04:43:32;6.03;;;2.90;;
30096;SDS011;16915;51.466;3.610;2023-04-03T04:46:07;4.00;;;3.15;;
30096;SDS011;16915;51.466;3.610;2023-04-03T04:48:35;7.57;;;2.58;;
30096;SDS011;16915;51.466;3.610;2023-04-03T04:51:01;5.72;;;2.92;;
30096;SDS011;16915;51.466;3.610;2023-04-03T04:53:27;9.73;;;3.22;;
30096;SDS011;16915;51.466;3.610;2023-04-03T04:55:52;4.80;;;2.67;;
30096;SDS011;16915;51.466;3.610;2023-04-03T04:58:18;5.45;;;3.38;;
30096;SDS011;16915;51.466;3.610;2023-04-03T05:00:44;6.38;;;3.38;;
30096;SDS011;16915;51.466;3.610;2023-04-03T05:03:10;5.35;;;3.40;;
30096;SDS011;16915;51.466;3.610;2023-04-03T05:05:36;4.63;;;2.70;;
30096;SDS011;16915;51.466;3.610;2023-04-03T05:08:02;4.80;;;2.80;;
30096;SDS011;16915;51.466;3.610;2023-04-03T05:10:28;5.03;;;2.88;;
30096;SDS011;16915;51.466;3.610;2023-04-03T05:12:53;8.55;;;3.40;;
30096;SDS011;16915;51.466;3.610;2023-04-03T05:15:19;6.50;;;3.47;;
30096;SDS011;16915;51.466;3.610;2023-04-03T05:17:45;5.10;;;3.20;;
30096;SDS011;16915;51.466;3.610;2023-04-03T05:20:11;4.28;;;2.55;;
30096;SDS011;16915;51.466;3.610;2023-04-03T05:22:37;5.65;;;2.83;;
30096;SDS011;16915;51.466;3.610;2023-04-03T05:25:03;6.32;;;3.35;;
30096;SDS011;16915;51.466;3.610;2023-04-03T05:27:29;6.30;;;3.85;;
30096;SDS011;16915;51.466;3.610;2023-04-03T05:29:55;6.30;;;3.03;;
30096;SDS011;16915;51.466;3.610;2023-04-03T05:32:21;5.47;;;3.10;;
30096;SDS011;16915;51.466;3.610;2023-04-03T05:34:47;5.78;;;3.55;;
30096;SDS011;16915;51.466;3.610;2023-04-03T05:37:13;7.85;;;3.17;;
30096;SDS011;16915;51.466;3.610;2023-04-03T05:39:39;7.32;;;3.03;;
30096;SDS011;16915;51.466;3.610;2023-04-03T05:42:06;3.78;;;3.28;;
30096;SDS011;16915;51.466;3.610;2023-04-03T05:44:32;4.65;;;3.13;;
30096;SDS011;16915;51.466;3.610;2023-04-03T05:46:57;6.15;;;3.25;;
30096;SDS011;16915;51.466;3.610;2023-04-03T05:49:23;4.40;;;2.88;;
30096;SDS011;16915;51.466;3.610;2023-04-03T05:51:49;5.03;;;3.15;;
30096;SDS011;16915;51.466;3.610;2023-04-03T05:54:23;6.00;;;3.67;;
30096;SDS011;16915;51.466;3.610;2023-04-03T05:56:51;3.65;;;3.25;;
30096;SDS011;16915;51.466;3.610;2023-04-03T05:59:18;4.63;;;3.20;;
30096;SDS011;16915;51.466;3.610;2023-04-03T06:01:44;3.85;;;2.78;;
30096;SDS011;16915;51.466;3.610;2023-04-03T06:04:11;6.65;;;3.50;;
30096;SDS011;16915;51.466;3.610;2023-04-03T06:06:48;7.78;;;3.30;;
30096;SDS011;16915;51.466;3.610;2023-04-03T06:09:19;3.88;;;2.53;;
30096;SDS011;16915;51.466;3.610;2023-04-03T06:11:46;5.15;;;3.33;;
30096;SDS011;16915;51.466;3.610;2023-04-03T06:14:12;6.78;;;3.55;;
30096;SDS011;16915;51.466;3.610;2023-04-03T06:16:37;4.82;;;3.50;;
30096;SDS011;16915;51.466;3.610;2023-04-03T06:19:04;8.77;;;3.88;;
30096;SDS011;16915;51.466;3.610;2023-04-03T06:21:30;7.25;;;3.60;;
30096;SDS011;16915;51.466;3.610;2023-04-03T06:23:57;7.20;;;3.95;;
30096;SDS011;16915;51.466;3.610;2023-04-03T06:26:22;4.95;;;3.40;;
30096;SDS011;16915;51.466;3.610;2023-04-03T06:28:48;5.13;;;3.65;;
30096;SDS011;16915;51.466;3.610;2023-04-03T06:31:14;3.63;;;3.30;;
30096;SDS011;16915;51.466;3.610;2023-04-03T06:33:40;5.50;;;3.70;;
30096;SDS011;16915;51.466;3.610;2023-04-03T06:36:05;5.47;;;3.78;;
30096;SDS011;16915;51.466;3.610;2023-04-03T06:38:33;6.75;;;3.58;;
30096;SDS011;16915;51.466;3.610;2023-04-03T06:40:59;4.80;;;3.25;;
30096;SDS011;16915;51.466;3.610;2023-04-03T06:43:25;6.97;;;3.70;;
30096;SDS011;16915;51.466;3.610;2023-04-03T06:45:51;4.32;;;3.00;;
30096;SDS011;16915;51.466;3.610;2023-04-03T06:48:16;4.90;;;3.35;;
30096;SDS011;16915;51.466;3.610;2023-04-03T06:50:42;4.85;;;3.40;;
30096;SDS011;16915;51.466;3.610;2023-04-03T06:53:08;6.57;;;3.30;;
30096;SDS011;16915;51.466;3.610;2023-04-03T06:55:34;4.75;;;3.50;;
30096;SDS011;16915;51.466;3.610;2023-04-03T06:58:00;4.20;;;3.05;;
30096;SDS011;16915;51.466;3.610;2023-04-03T07:00:26;5.32;;;3.10;;
30096;SDS011;16915;51.466;3.610;2023-04-03T07:02:52;6.78;;;3.35;;
30096;SDS011;16915;51.466;3.610;2023-04-03T07:05:18;6.35;;;2.92;;
30096;SDS011;16915;51.466;3.610;2023-04-03T07:07:43;4.75;;;3.28;;
30096;SDS011;16915;51.466;3.610;2023-04-03T07:10:09;5.22;;;3.10;;
30096;SDS011;16915;51.466;3.610;2023-04-03T07:12:36;6.07;;;3.25;;
30096;SDS011;16915;51.466;3.610;2023-04-03T07:15:02;3.72;;;3.00;;
30096;SDS011;16915;51.466;3.610;2023-04-03T07:17:29;6.10;;;3.20;;
30096;SDS011;16915;51.466;3.610;2023-04-03T07:19:55;5.50;;;3.30;;
30096;SDS011;16915;51.466;3.610;2023-04-03T07:22:20;6.53;;;3.28;;
30096;SDS011;16915;51.466;3.610;2023-04-03T07:24:46;6.22;;;3.10;;
30096;SDS011;16915;51.466;3.610;2023-04-03T07:27:11;7.88;;;3.17;;
30096;SDS011;16915;51.466;3.610;2023-04-03T07:29:37;5.50;;;2.80;;
30096;SDS011;16915;51.466;3.610;2023-04-03T07:32:03;4.18;;;3.15;;
30096;SDS011;16915;51.466;3.610;2023-04-03T07:34:30;4.75;;;3.00;;
30096;SDS011;16915;51.466;3.610;2023-04-03T07:36:57;4.53;;;3.10;;
30096;SDS011;16915;51.466;3.610;2023-04-03T07:39:23;3.72;;;2.95;;
30096;SDS011;16915;51.466;3.610;2023-04-03T07:41:49;6.00;;;2.70;;
30096;SDS011;16915;51.466;3.610;2023-04-03T07:44:15;2.97;;;2.60;;
30096;SDS011;16915;51.466;3.610;2023-04-03T07:46:40;2.63;;;2.35;;
30096;SDS011;16915;51.466;3.610;2023-04-03T07:49:07;9.23;;;2.95;;
30096;SDS011;16915;51.466;3.610;2023-04-03T07:51:32;2.80;;;2.60;;
30096;SDS011;16915;51.466;3.610;2023-04-03T07:53:58;5.25;;;2.80;;
30096;SDS011;16915;51.466;3.610;2023-04-03T07:56:24;3.30;;;2.83;;
30096;SDS011;16915;51.466;3.610;2023-04-03T07:58:50;6.90;;;3.10;;
30096;SDS011;16915;51.466;3.610;2023-04-03T08:01:15;6.85;;;3.17;;
30096;SDS011;16915;51.466;3.610;2023-04-03T08:03:41;6.07;;;3.45;;
30096;SDS011;16915;51.466;3.610;2023-04-03T08:06:08;4.95;;;3.28;;
30096;SDS011;16915;51.466;3.610;2023-04-03T08:08:34;6.00;;;2.72;;
30096;SDS011;16915;51.466;3.610;2023-04-03T08:11:00;9.20;;;2.85;;
30096;SDS011;16915;51.466;3.610;2023-04-03T08:13:27;3.00;;;2.70;;
30096;SDS011;16915;51.466;3.610;2023-04-03T08:15:54;5.95;;;2.65;;
30096;SDS011;16915;51.466;3.610;2023-04-03T08:18:22;6.57;;;2.90;;
30096;SDS011;16915;51.466;3.610;2023-04-03T08:20:49;2.47;;;2.25;;
30096;SDS011;16915;51.466;3.610;2023-04-03T08:23:16;6.40;;;2.08;;
30096;SDS011;16915;51.466;3.610;2023-04-03T08:25:42;6.13;;;2.90;;
30096;SDS011;16915;51.466;3.610;2023-04-03T08:28:10;3.85;;;2.03;;
30096;SDS011;16915;51.466;3.610;2023-04-03T08:30:38;2.38;;;2.00;;
30096;SDS011;16915;51.466;3.610;2023-04-03T08:33:06;3.80;;;1.98;;
30096;SDS011;16915;51.466;3.610;2023-04-03T08:35:32;2.40;;;2.20;;
30096;SDS011;16915;51.466;3.610;2023-04-03T08:37:57;3.15;;;2.13;;
30096;SDS011;16915;51.466;3.610;2023-04-03T08:40:23;2.42;;;1.65;;
30096;SDS011;16915;51.466;3.610;2023-04-03T08:45:55;4.00;;;1.83;;
30096;SDS011;16915;51.466;3.610;2023-04-03T08:48:36;5.13;;;1.70;;
30096;SDS011;16915;51.466;3.610;2023-04-03T08:51:11;4.43;;;2.00;;
30096;SDS011;16915;51.466;3.610;2023-04-03T08:53:44;4.15;;;1.70;;
30096;SDS011;16915;51.466;3.610;2023-04-03T08:56:20;5.22;;;1.80;;
30096;SDS011;16915;51.466;3.610;2023-04-03T08:58:49;3.50;;;1.45;;
30096;SDS011;16915;51.466;3.610;2023-04-03T09:01:30;4.18;;;1.40;;
30096;SDS011;16915;51.466;3.610;2023-04-03T09:04:08;5.85;;;1.60;;
30096;SDS011;16915;51.466;3.610;2023-04-03T09:06:37;4.25;;;1.70;;
30096;SDS011;16915;51.466;3.610;2023-04-03T09:11:53;2.40;;;1.40;;
30096;SDS011;16915;51.466;3.610;2023-04-03T09:14:49;3.58;;;1.23;;
30096;SDS011;16915;51.466;3.610;2023-04-03T09:22:38;4.88;;;1.75;;
30096;SDS011;16915;51.466;3.610;2023-04-03T09:27:38;3.50;;;1.10;;
30096;SDS011;16915;51.466;3.610;2023-04-03T09:30:03;3.70;;;1.50;;
30096;SDS011;16915;51.466;3.610;2023-04-03T09:34:58;15.25;;;1.08;;
30096;SDS011;16915;51.466;3.610;2023-04-03T09:43:37;4.97;;;1.27;;
30096;SDS011;16915;51.466;3.610;2023-04-03T09:46:15;1.65;;;1.08;;
30096;SDS011;16915;51.466;3.610;2023-04-03T09:48:58;2.75;;;1.15;;
30096;SDS011;16915;51.466;3.610;2023-04-03T09:51:26;3.42;;;1.15;;
30096;SDS011;16915;51.466;3.610;2023-04-03T09:53:53;4.13;;;1.23;;
30096;SDS011;16915;51.466;3.610;2023-04-03T09:58:48;4.18;;;1.38;;
30096;SDS011;16915;51.466;3.610;2023-04-03T10:06:42;3.28;;;1.33;;
30096;SDS011;16915;51.466;3.610;2023-04-03T10:09:17;1.33;;;0.80;;
30096;SDS011;16915;51.466;3.610;2023-04-03T10:14:31;2.25;;;0.90;;
30096;SDS011;16915;51.466;3.610;2023-04-03T10:19:43;3.00;;;1.15;;
30096;SDS011;16915;51.466;3.610;2023-04-03T10:25:10;2.38;;;1.10;;
30096;SDS011;16915;51.466;3.610;2023-04-03T10:27:44;2.08;;;0.98;;
30096;SDS011;16915;51.466;3.610;2023-04-03T10:30:19;4.57;;;1.00;;
30096;SDS011;16915;51.466;3.610;2023-04-03T10:38:48;1.17;;;1.00;;
30096;SDS011;16915;51.466;3.610;2023-04-03T10:46:28;1.80;;;1.00;;
30096;SDS011;16915;51.466;3.610;2023-04-03T10:51:56;5.72;;;1.10;;
30096;SDS011;16915;51.466;3.610;2023-04-03T10:54:38;2.50;;;1.42;;
30096;SDS011;16915;51.466;3.610;2023-04-03T10:57:10;1.38;;;0.73;;
30096;SDS011;16915;51.466;3.610;2023-04-03T11:02:38;2.35;;;1.00;;
30096;SDS011;16915;51.466;3.610;2023-04-03T11:08:21;5.35;;;0.88;;
30096;SDS011;16915;51.466;3.610;2023-04-03T11:14:28;3.75;;;1.05;;
30096;SDS011;16915;51.466;3.610;2023-04-03T11:16:31;1.05;;;0.85;;
30096;SDS011;16915;51.466;3.610;2023-04-03T11:24:08;1.90;;;0.63;;
30096;SDS011;16915;51.466;3.610;2023-04-03T11:26:42;0.88;;;0.70;;
30096;SDS011;16915;51.466;3.610;2023-04-03T11:29:10;3.83;;;1.67;;
30096;SDS011;16915;51.466;3.610;2023-04-03T11:34:35;1.55;;;0.80;;
30096;SDS011;16915;51.466;3.610;2023-04-03T11:37:20;1.40;;;1.00;;
30096;SDS011;16915;51.466;3.610;2023-04-03T11:39:59;3.13;;;1.23;;
30096;SDS011;16915;51.466;3.610;2023-04-03T11:42:34;2.67;;;0.88;;
30096;SDS011;16915;51.466;3.610;2023-04-03T11:47:53;2.08;;;1.30;;
30096;SDS011;16915;51.466;3.610;2023-04-03T11:58:27;2.88;;;0.75;;
30096;SDS011;16915;51.466;3.610;2023-04-03T12:05:55;1.67;;;0.90;;
30096;SDS011;16915;51.466;3.610;2023-04-03T12:13:39;1.33;;;0.90;;
30096;SDS011;16915;51.466;3.610;2023-04-03T12:16:07;2.60;;;1.02;;
30096;SDS011;16915;51.466;3.610;2023-04-03T12:21:18;1.92;;;0.70;;
30096;SDS011;16915;51.466;3.610;2023-04-03T12:26:31;2.15;;;0.75;;
30096;SDS011;16915;51.466;3.610;2023-04-03T12:29:10;1.48;;;0.70;;
30096;SDS011;16915;51.466;3.610;2023-04-03T12:34:38;1.02;;;0.80;;
30096;SDS011;16915;51.466;3.610;2023-04-03T12:39:54;1.30;;;0.90;;
30096;SDS011;16915;51.466;3.610;2023-04-03T12:42:32;1.60;;;0.70;;
30096;SDS011;16915;51.466;3.610;2023-04-03T12:45:22;1.30;;;0.63;;
30096;SDS011;16915;51.466;3.610;2023-04-03T12:47:51;1.95;;;0.80;;
30096;SDS011;16915;51.466;3.610;2023-04-03T12:53:11;1.58;;;0.80;;
30096;SDS011;16915;51.466;3.610;2023-04-03T12:55:39;1.05;;;0.65;;
30096;SDS011;16915;51.466;3.610;2023-04-03T13:00:41;1.35;;;0.70;;
30096;SDS011;16915;51.466;3.610;2023-04-03T13:03:18;2.45;;;0.80;;
30096;SDS011;16915;51.466;3.610;2023-04-03T13:05:51;0.98;;;0.77;;
30096;SDS011;16915;51.466;3.610;2023-04-03T13:08:19;1.20;;;0.70;;
30096;SDS011;16915;51.466;3.610;2023-04-03T13:10:47;2.55;;;0.70;;
30096;SDS011;16915;51.466;3.610;2023-04-03T13:13:14;2.63;;;0.88;;
30096;SDS011;16915;51.466;3.610;2023-04-03T13:15:44;1.23;;;0.73;;
30096;SDS011;16915;51.466;3.610;2023-04-03T13:20:53;1.33;;;0.60;;
30096;SDS011;16915;51.466;3.610;2023-04-03T13:23:23;1.98;;;0.65;;
30096;SDS011;16915;51.466;3.610;2023-04-03T13:25:50;2.03;;;0.88;;
30096;SDS011;16915;51.466;3.610;2023-04-03T13:28:20;1.08;;;0.90;;
30096;SDS011;16915;51.466;3.610;2023-04-03T13:36:20;1.42;;;0.77;;
30096;SDS011;16915;51.466;3.610;2023-04-03T13:38:59;1.73;;;0.80;;
30096;SDS011;16915;51.466;3.610;2023-04-03T13:44:15;1.83;;;0.57;;
30096;SDS011;16915;51.466;3.610;2023-04-03T13:46:40;3.53;;;0.80;;
30096;SDS011;16915;51.466;3.610;2023-04-03T13:49:17;1.20;;;0.60;;
30096;SDS011;16915;51.466;3.610;2023-04-03T13:51:47;2.47;;;0.80;;
30096;SDS011;16915;51.466;3.610;2023-04-03T13:54:18;1.33;;;0.70;;
30096;SDS011;16915;51.466;3.610;2023-04-03T13:56:47;1.65;;;0.60;;
30096;SDS011;16915;51.466;3.610;2023-04-03T13:59:21;0.50;;;0.50;;
30096;SDS011;16915;51.466;3.610;2023-04-03T14:01:49;2.10;;;0.60;;
30096;SDS011;16915;51.466;3.610;2023-04-03T14:04:23;0.70;;;0.50;;
30096;SDS011;16915;51.466;3.610;2023-04-03T14:06:51;1.15;;;0.68;;
30096;SDS011;16915;51.466;3.610;2023-04-03T14:09:17;0.65;;;0.57;;
30096;SDS011;16915;51.466;3.610;2023-04-03T14:11:45;2.05;;;0.50;;
30096;SDS011;16915;51.466;3.610;2023-04-03T14:14:14;0.50;;;0.40;;
30096;SDS011;16915;51.466;3.610;2023-04-03T14:16:56;1.98;;;0.70;;
30096;SDS011;16915;51.466;3.610;2023-04-03T14:19:34;0.82;;;0.45;;
30096;SDS011;16915;51.466;3.610;2023-04-03T14:22:05;2.63;;;0.60;;
30096;SDS011;16915;51.466;3.610;2023-04-03T14:24:53;1.05;;;0.50;;
30096;SDS011;16915;51.466;3.610;2023-04-03T14:27:21;0.45;;;0.43;;
30096;SDS011;16915;51.466;3.610;2023-04-03T14:29:52;1.65;;;0.40;;
30096;SDS011;16915;51.466;3.610;2023-04-03T14:32:20;0.45;;;0.40;;
30096;SDS011;16915;51.466;3.610;2023-04-03T14:34:49;1.05;;;0.40;;
30096;SDS011;16915;51.466;3.610;2023-04-03T14:37:17;0.70;;;0.40;;
30096;SDS011;16915;51.466;3.610;2023-04-03T14:39:46;1.57;;;0.40;;
30096;SDS011;16915;51.466;3.610;2023-04-03T14:42:14;0.47;;;0.40;;
30096;SDS011;16915;51.466;3.610;2023-04-03T14:44:47;1.27;;;0.40;;
30096;SDS011;16915;51.466;3.610;2023-04-03T14:47:15;2.95;;;0.35;;
30096;SDS011;16915;51.466;3.610;2023-04-03T14:49:43;0.45;;;0.40;;
30096;SDS011;16915;51.466;3.610;2023-04-03T14:52:16;0.63;;;0.40;;
30096;SDS011;16915;51.466;3.610;2023-04-03T14:54:44;0.57;;;0.43;;
30096;SDS011;16915;51.466;3.610;2023-04-03T14:57:11;1.05;;;0.50;;
30096;SDS011;16915;51.466;3.610;2023-04-03T14:59:39;1.40;;;0.40;;
30096;SDS011;16915;51.466;3.610;2023-04-03T15:02:38;0.45;;;0.45;;
30096;SDS011;16915;51.466;3.610;2023-04-03T15:05:01;0.40;;;0.40;;
30096;SDS011;16915;51.466;3.610;2023-04-03T15:07:33;17.63;;;1.02;;
30096;SDS011;16915;51.466;3.610;2023-04-03T15:10:14;1.08;;;0.65;;
30096;SDS011;16915;51.466;3.610;2023-04-03T15:12:45;3.17;;;0.60;;
30096;SDS011;16915;51.466;3.610;2023-04-03T15:15:12;0.90;;;0.30;;
30096;SDS011;16915;51.466;3.610;2023-04-03T15:17:38;0.60;;;0.40;;
30096;SDS011;16915;51.466;3.610;2023-04-03T15:20:06;2.05;;;0.40;;
30096;SDS011;16915;51.466;3.610;2023-04-03T15:22:41;0.50;;;0.40;;
30096;SDS011;16915;51.466;3.610;2023-04-03T15:25:07;1.95;;;0.77;;
30096;SDS011;16915;51.466;3.610;2023-04-03T15:27:33;1.30;;;0.40;;
30096;SDS011;16915;51.466;3.610;2023-04-03T15:29:59;1.88;;;0.40;;
30096;SDS011;16915;51.466;3.610;2023-04-03T15:32:25;0.60;;;0.52;;
30096;SDS011;16915;51.466;3.610;2023-04-03T15:34:50;2.90;;;0.47;;
30096;SDS011;16915;51.466;3.610;2023-04-03T15:37:16;3.88;;;0.50;;
30096;SDS011;16915;51.466;3.610;2023-04-03T15:39:42;0.47;;;0.30;;
30096;SDS011;16915;51.466;3.610;2023-04-03T15:42:07;2.10;;;0.50;;
30096;SDS011;16915;51.466;3.610;2023-04-03T15:44:33;0.47;;;0.47;;
30096;SDS011;16915;51.466;3.610;2023-04-03T15:46:59;2.55;;;0.80;;
30096;SDS011;16915;51.466;3.610;2023-04-03T15:49:25;1.48;;;0.57;;
30096;SDS011;16915;51.466;3.610;2023-04-03T15:51:51;0.80;;;0.50;;
30096;SDS011;16915;51.466;3.610;2023-04-03T15:54:17;1.95;;;0.50;;
30096;SDS011;16915;51.466;3.610;2023-04-03T15:56:43;1.67;;;0.50;;
30096;SDS011;16915;51.466;3.610;2023-04-03T15:59:09;1.60;;;0.50;;
30096;SDS011;16915;51.466;3.610;2023-04-03T16:01:35;2.45;;;0.60;;
30096;SDS011;16915;51.466;3.610;2023-04-03T16:04:02;0.93;;;0.60;;
30096;SDS011;16915;51.466;3.610;2023-04-03T16:06:28;0.80;;;0.60;;
30096;SDS011;16915;51.466;3.610;2023-04-03T16:08:55;0.55;;;0.55;;
30096;SDS011;16915;51.466;3.610;2023-04-03T16:11:23;0.50;;;0.50;;
30096;SDS011;16915;51.466;3.610;2023-04-03T16:13:50;1.15;;;0.63;;
30096;SDS011;16915;51.466;3.610;2023-04-03T16:16:15;0.50;;;0.40;;
30096;SDS011;16915;51.466;3.610;2023-04-03T16:18:41;1.90;;;0.50;;
30096;SDS011;16915;51.466;3.610;2023-04-03T16:21:07;2.13;;;0.70;;
30096;SDS011;16915;51.466;3.610;2023-04-03T16:23:33;1.30;;;0.73;;
30096;SDS011;16915;51.466;3.610;2023-04-03T16:25:59;4.63;;;0.68;;
30096;SDS011;16915;51.466;3.610;2023-04-03T16:28:25;3.00;;;0.75;;
30096;SDS011;16915;51.466;3.610;2023-04-03T16:30:51;1.80;;;0.80;;
30096;SDS011;16915;51.466;3.610;2023-04-03T16:33:16;0.93;;;0.63;;
30096;SDS011;16915;51.466;3.610;2023-04-03T16:35:42;1.98;;;0.90;;
30096;SDS011;16915;51.466;3.610;2023-04-03T16:38:09;2.08;;;0.73;;
30096;SDS011;16915;51.466;3.610;2023-04-03T16:40:35;1.15;;;0.70;;
30096;SDS011;16915;51.466;3.610;2023-04-03T16:43:01;3.55;;;0.90;;
30096;SDS011;16915;51.466;3.610;2023-04-03T16:45:27;0.90;;;0.70;;
30096;SDS011;16915;51.466;3.610;2023-04-03T16:47:53;4.18;;;1.08;;
30096;SDS011;16915;51.466;3.610;2023-04-03T16:50:18;2.78;;;0.80;;
30096;SDS011;16915;51.466;3.610;2023-04-03T16:52:47;1.38;;;0.55;;
30096;SDS011;16915;51.466;3.610;2023-04-03T16:55:12;1.45;;;0.73;;
30096;SDS011;16915;51.466;3.610;2023-04-03T16:57:38;1.95;;;0.57;;
30096;SDS011;16915;51.466;3.610;2023-04-03T17:00:04;2.65;;;1.10;;
30096;SDS011;16915;51.466;3.610;2023-04-03T17:02:31;1.10;;;0.63;;
30096;SDS011;16915;51.466;3.610;2023-04-03T17:04:56;1.00;;;0.70;;
30096;SDS011;16915;51.466;3.610;2023-04-03T17:07:22;0.75;;;0.73;;